createdAt,value
2018-09-12T00:01:53.794Z,2.37
2018-09-12T00:04:24.355Z,2.20
2018-09-12T00:06:54.236Z,2.47
2018-09-12T00:09:24.620Z,2.20
2018-09-12T00:11:54.257Z,2.50
2018-09-12T00:14:24.705Z,2.43
2018-09-12T00:16:55.341Z,2.27
2018-09-12T00:19:24.889Z,2.20
2018-09-12T00:21:54.534Z,2.10
2018-09-12T00:24:24.347Z,2.73
2018-09-12T00:26:54.889Z,3.00
2018-09-12T00:29:24.243Z,2.80
2018-09-12T00:31:53.522Z,2.40
2018-09-12T00:34:24.340Z,2.07
2018-09-12T00:36:54.666Z,2.60
2018-09-12T00:39:25.437Z,2.03
2018-09-12T00:41:54.234Z,2.00
2018-09-12T00:44:24.597Z,2.20
2018-09-12T00:46:54.640Z,2.40
2018-09-12T00:49:24.493Z,2.50
2018-09-12T00:51:54.132Z,2.20
2018-09-12T00:54:24.483Z,2.40
2018-09-12T00:56:54.629Z,2.50
2018-09-12T00:59:24.445Z,2.13
2018-09-12T01:01:53.654Z,2.77
2018-09-12T01:04:23.948Z,2.47
2018-09-12T01:06:55.222Z,2.20
2018-09-12T01:09:24.577Z,2.30
2018-09-12T01:11:54.212Z,2.63
2018-09-12T01:14:29.507Z,2.30
2018-09-12T01:16:59.149Z,2.60
2018-09-12T01:19:28.940Z,2.40
2018-09-12T01:21:57.325Z,2.60
2018-09-12T01:24:25.670Z,2.40
2018-09-12T01:26:56.026Z,2.90
2018-09-12T01:29:26.438Z,2.60
2018-09-12T01:31:56.289Z,2.50
2018-09-12T01:34:25.504Z,2.23
2018-09-12T01:36:55.865Z,2.70
2018-09-12T01:39:25.250Z,2.40
2018-09-12T01:41:54.480Z,2.83
2018-09-12T01:44:24.321Z,2.70
2018-09-12T01:46:53.719Z,2.57
2018-09-12T01:49:23.178Z,2.70
2018-09-12T01:51:52.421Z,2.50
2018-09-12T01:54:21.646Z,2.90
2018-09-12T01:56:50.556Z,2.77
2018-09-12T02:01:53.657Z,2.70
2018-09-12T02:04:24.891Z,3.53
2018-09-12T02:06:54.633Z,3.00
2018-09-12T02:09:24.670Z,1.90
2018-09-12T02:11:54.410Z,3.17
2018-09-12T02:14:23.790Z,2.90
2018-09-12T02:16:53.194Z,2.80
2018-09-12T02:19:22.453Z,2.87
2018-09-12T02:21:52.989Z,2.53
2018-09-12T02:24:23.719Z,2.87
2018-09-12T02:26:53.158Z,2.60
2018-09-12T02:29:22.650Z,2.90
2018-09-12T02:31:53.799Z,2.93
2018-09-12T02:34:24.197Z,3.10
2018-09-12T02:36:54.991Z,2.53
2018-09-12T02:39:24.334Z,3.00
2018-09-12T02:41:54.212Z,3.27
2018-09-12T02:44:24.954Z,2.53
2018-09-12T02:46:53.988Z,2.90
2018-09-12T02:49:23.736Z,2.20
2018-09-12T02:51:53.672Z,2.33
2018-09-12T02:54:23.689Z,2.60
2018-09-12T02:56:54.310Z,1.90
2018-09-12T02:59:24.038Z,2.60
2018-09-12T03:01:54.246Z,2.60
2018-09-12T03:04:24.198Z,2.50
2018-09-12T03:06:54.361Z,2.57
2018-09-12T03:09:23.772Z,2.83
2018-09-12T03:11:53.039Z,2.60
2018-09-12T03:14:24.134Z,2.63
2018-09-12T03:16:54.084Z,2.20
2018-09-12T03:19:25.141Z,1.83
2018-09-12T03:21:54.124Z,2.57
2018-09-12T03:24:24.524Z,2.60
2018-09-12T03:26:55.321Z,2.47
2018-09-12T03:29:24.719Z,2.47
2018-09-12T03:31:54.577Z,2.50
2018-09-12T03:34:24.192Z,3.63
2018-09-12T03:36:53.757Z,2.70
2018-09-12T03:39:24.520Z,3.50
2018-09-12T03:41:54.901Z,2.40
2018-09-12T03:44:24.274Z,2.60
2018-09-12T03:46:56.321Z,3.10
2018-09-12T03:49:25.537Z,2.60
2018-09-12T03:51:56.046Z,3.10
2018-09-12T03:54:26.594Z,2.53
2018-09-12T03:56:56.050Z,2.90
2018-09-12T03:59:26.849Z,2.40
2018-09-12T04:01:56.574Z,2.50
2018-09-12T04:04:25.757Z,2.97
2018-09-12T04:06:56.001Z,2.50
2018-09-12T04:09:25.391Z,2.67
2018-09-12T04:11:54.893Z,2.97
2018-09-12T04:14:23.461Z,3.13
2018-09-12T04:16:54.345Z,2.87
2018-09-12T04:19:24.050Z,2.33
2018-09-12T04:21:54.828Z,2.27
2018-09-12T04:24:23.554Z,3.53
2018-09-12T04:26:53.817Z,2.70
2018-09-12T04:29:24.622Z,2.83
2018-09-12T04:31:54.987Z,3.10
2018-09-12T04:34:23.921Z,2.33
2018-09-12T04:36:52.430Z,2.50
2018-09-12T04:39:22.035Z,3.23
2018-09-12T04:41:51.649Z,2.90
2018-09-12T04:44:21.644Z,3.33
2018-09-12T04:46:51.637Z,3.17
2018-09-12T04:49:20.546Z,3.93
2018-09-12T04:51:48.888Z,2.93
2018-09-12T04:54:18.096Z,3.37
2018-09-12T04:56:47.528Z,3.40
2018-09-12T04:59:15.866Z,3.73
2018-09-12T05:01:45.308Z,3.00
2018-09-12T05:04:13.646Z,3.17
2018-09-12T05:06:42.885Z,2.97
2018-09-12T05:09:12.025Z,2.80
2018-09-12T05:11:40.442Z,2.97
2018-09-12T05:14:08.846Z,3.77
2018-09-12T05:16:38.109Z,3.00
2018-09-12T05:19:06.454Z,3.43
2018-09-12T05:21:34.810Z,3.07
2018-09-12T05:24:04.028Z,2.80
2018-09-12T05:26:32.813Z,3.20
2018-09-12T05:29:01.196Z,3.00
2018-09-12T05:31:30.590Z,2.80
2018-09-12T05:34:00.119Z,3.40
2018-09-12T05:36:28.507Z,3.83
2018-09-12T05:38:58.329Z,3.20
2018-09-12T05:41:27.716Z,3.10
2018-09-12T05:43:57.233Z,3.97
2018-09-12T05:46:26.470Z,3.30
2018-09-12T05:48:55.833Z,3.60
2018-09-12T05:51:26.136Z,3.13
2018-09-12T05:53:55.602Z,3.53
2018-09-12T05:56:25.922Z,3.30
2018-09-12T05:58:55.843Z,3.50
2018-09-12T06:01:25.679Z,2.80
2018-09-12T06:03:55.449Z,3.43
2018-09-12T06:06:25.753Z,2.63
2018-09-12T06:08:55.189Z,3.57
2018-09-12T06:11:23.525Z,3.90
2018-09-12T06:13:53.752Z,3.63
2018-09-12T06:16:24.580Z,3.33
2018-09-12T06:18:54.685Z,4.00
2018-09-12T06:21:25.910Z,3.23
2018-09-12T06:23:55.510Z,3.90
2018-09-12T06:26:25.912Z,3.60
2018-09-12T06:28:55.200Z,3.30
2018-09-12T06:31:23.584Z,4.50
2018-09-12T06:33:54.845Z,4.10
2018-09-12T06:36:23.601Z,4.37
2018-09-12T06:38:54.837Z,3.70
2018-09-12T06:41:24.662Z,3.20
2018-09-12T06:43:54.961Z,3.00
2018-09-12T06:46:23.954Z,3.10
2018-09-12T06:48:54.254Z,3.00
2018-09-12T06:51:23.619Z,3.20
2018-09-12T06:53:53.895Z,3.17
2018-09-12T06:56:25.886Z,3.60
2018-09-12T06:58:55.301Z,4.20
2018-09-12T07:01:25.518Z,4.90
2018-09-12T07:03:54.920Z,4.93
2018-09-12T07:06:24.168Z,3.50
2018-09-12T07:08:53.567Z,3.43
2018-09-12T07:11:23.670Z,3.87
2018-09-12T07:13:53.880Z,2.83
2018-09-12T07:16:23.960Z,3.40
2018-09-12T07:18:54.977Z,3.73
2018-09-12T07:21:25.018Z,3.17
2018-09-12T07:23:55.358Z,2.50
2018-09-12T07:26:24.713Z,2.80
2018-09-12T07:28:54.864Z,2.70
2018-09-12T07:31:25.729Z,3.50
2018-09-12T07:33:55.592Z,2.37
2018-09-12T07:36:24.997Z,2.37
2018-09-12T07:38:54.119Z,3.27
2018-09-12T07:41:24.017Z,2.67
2018-09-12T07:43:54.232Z,3.23
2018-09-12T07:46:24.258Z,2.70
2018-09-12T07:48:53.661Z,2.93
2018-09-12T07:51:23.648Z,3.10
2018-09-12T07:53:53.742Z,2.93
2018-09-12T07:56:23.501Z,3.13
2018-09-12T07:58:53.497Z,2.93
2018-09-12T08:01:23.618Z,2.70
2018-09-12T08:03:54.880Z,2.80
2018-09-12T08:06:25.381Z,3.00
2018-09-12T08:08:55.161Z,2.97
2018-09-12T08:11:25.421Z,2.70
2018-09-12T08:13:55.471Z,3.20
2018-09-12T08:16:25.469Z,3.23
2018-09-12T08:18:55.133Z,2.80
2018-09-12T08:21:26.051Z,3.10
2018-09-12T08:23:55.542Z,3.07
2018-09-12T08:26:25.140Z,2.60
2018-09-12T08:28:54.681Z,2.90
2018-09-12T08:31:23.494Z,3.13
2018-09-12T08:33:53.927Z,3.40
2018-09-12T08:36:23.574Z,3.70
2018-09-12T08:38:52.520Z,3.23
2018-09-12T08:41:22.525Z,3.63
2018-09-12T08:43:51.914Z,3.10
2018-09-12T08:46:20.726Z,2.63
2018-09-12T08:48:49.078Z,3.10
2018-09-12T08:51:17.512Z,2.70
2018-09-12T08:53:45.867Z,2.73
2018-09-12T08:56:14.206Z,2.63
2018-09-12T08:58:43.533Z,2.53
2018-09-12T09:01:11.890Z,2.33
2018-09-12T09:03:40.225Z,2.50
2018-09-12T09:06:08.890Z,2.57
2018-09-12T09:08:37.400Z,2.80
2018-09-12T09:11:05.836Z,3.60
2018-09-12T09:13:34.169Z,2.63
2018-09-12T09:16:02.547Z,2.73
2018-09-12T09:18:30.879Z,2.37
2018-09-12T09:20:59.204Z,3.07
2018-09-12T09:23:27.531Z,3.07
2018-09-12T09:25:56.448Z,2.43
2018-09-12T09:28:26.780Z,1.93
2018-09-12T09:30:55.876Z,2.27
2018-09-12T09:33:25.137Z,2.43
2018-09-12T09:35:58.232Z,2.80
2018-09-12T09:38:26.569Z,2.77
2018-09-12T09:40:55.935Z,2.07
2018-09-12T09:43:26.133Z,2.90
2018-09-12T09:45:56.262Z,2.27
2018-09-12T09:48:25.672Z,2.23
2018-09-12T09:50:55.519Z,2.00
2018-09-12T09:53:25.504Z,2.20
2018-09-12T09:55:55.385Z,2.20
2018-09-12T09:58:25.990Z,2.10
2018-09-12T10:01:01.869Z,2.03
2018-09-12T10:03:36.529Z,2.00
2018-09-12T10:06:10.256Z,2.20
2018-09-12T10:08:43.900Z,1.90
2018-09-12T10:11:12.238Z,2.23
2018-09-12T10:13:41.404Z,1.53
2018-09-12T10:16:09.733Z,1.63
2018-09-12T10:18:39.096Z,1.90
2018-09-12T10:21:07.097Z,2.00
2018-09-12T10:23:36.289Z,1.67
2018-09-12T10:26:05.544Z,2.10
2018-09-12T10:28:34.756Z,2.47
2018-09-12T10:31:03.087Z,1.87
2018-09-12T10:33:32.289Z,2.40
2018-09-12T10:36:01.481Z,2.47
2018-09-12T10:38:29.896Z,2.37
2018-09-12T10:40:59.269Z,2.10
2018-09-12T10:43:28.478Z,2.37
2018-09-12T10:45:58.135Z,2.00
2018-09-12T10:48:27.437Z,2.50
2018-09-12T10:50:56.806Z,2.40
2018-09-12T10:53:25.949Z,2.10
2018-09-12T10:55:56.110Z,2.53
2018-09-12T10:58:26.767Z,2.30
2018-09-12T11:00:55.964Z,2.23
2018-09-12T11:03:26.144Z,2.23
2018-09-12T11:05:56.018Z,1.77
2018-09-12T11:08:25.621Z,2.00
2018-09-12T11:10:55.805Z,2.60
2018-09-12T11:13:25.094Z,2.70
2018-09-12T11:15:55.637Z,2.30
2018-09-12T11:18:24.641Z,1.97
2018-09-12T11:20:54.742Z,1.90
2018-09-12T11:23:25.174Z,1.77
2018-09-12T11:25:56.281Z,2.30
2018-09-12T11:28:25.957Z,1.87
2018-09-12T11:30:54.889Z,2.00
2018-09-12T11:33:25.625Z,2.33
2018-09-12T11:35:55.323Z,1.70
2018-09-12T11:38:23.649Z,1.57
2018-09-12T11:40:54.280Z,2.10
2018-09-12T11:43:25.184Z,1.77
2018-09-12T11:45:53.670Z,1.93
2018-09-12T11:48:22.766Z,2.10
2018-09-12T11:50:52.556Z,1.70
2018-09-12T11:53:20.949Z,2.07
2018-09-12T11:55:49.277Z,1.70
2018-09-12T11:58:17.610Z,1.50
2018-09-12T12:00:45.941Z,1.80
2018-09-12T12:03:14.274Z,2.43
2018-09-12T12:05:42.658Z,1.50
2018-09-12T12:08:12.024Z,1.70
2018-09-12T12:10:41.421Z,1.60
2018-09-12T12:13:09.752Z,1.60
2018-09-12T12:15:38.914Z,1.70
2018-09-12T12:18:07.254Z,1.70
2018-09-12T12:20:35.584Z,1.63
2018-09-12T12:23:03.932Z,1.37
2018-09-12T12:25:33.229Z,2.50
2018-09-12T12:28:02.462Z,1.90
2018-09-12T12:30:30.786Z,1.60
2018-09-12T12:32:59.400Z,1.70
2018-09-12T12:35:28.629Z,1.97
2018-09-12T12:37:57.910Z,1.80
2018-09-12T12:40:27.085Z,1.77
2018-09-12T12:42:56.924Z,2.10
2018-09-12T12:45:26.706Z,1.60
2018-09-12T12:47:56.188Z,2.03
2018-09-12T12:50:25.090Z,1.97
2018-09-12T12:52:59.211Z,1.80
2018-09-12T12:55:28.595Z,1.80
2018-09-12T12:57:56.933Z,1.90
2018-09-12T13:00:26.342Z,2.00
2018-09-12T13:02:55.564Z,1.67
2018-09-12T13:05:24.575Z,2.70
2018-09-12T13:07:54.856Z,2.13
2018-09-12T13:10:25.345Z,2.00
2018-09-12T13:12:55.095Z,2.40
2018-09-12T13:15:26.477Z,2.30
2018-09-12T13:17:56.048Z,2.57
2018-09-12T13:20:25.513Z,2.10
2018-09-12T13:22:55.933Z,2.10
2018-09-12T13:25:26.715Z,2.40
2018-09-12T13:27:56.170Z,2.33
2018-09-12T13:30:25.541Z,3.20
2018-09-12T13:32:54.610Z,2.90
2018-09-12T13:35:24.544Z,2.83
2018-09-12T13:37:54.509Z,2.40
2018-09-12T13:40:24.748Z,2.80
2018-09-12T13:42:55.158Z,2.20
2018-09-12T13:45:25.598Z,2.23
2018-09-12T13:47:55.414Z,2.80
2018-09-12T13:50:24.966Z,2.20
2018-09-12T13:52:55.510Z,2.60
2018-09-12T13:55:25.079Z,2.13
2018-09-12T13:57:55.065Z,2.47
2018-09-12T14:00:29.138Z,2.10
2018-09-12T14:02:59.264Z,1.97
2018-09-12T14:05:27.591Z,2.57
2018-09-12T14:07:57.110Z,2.20
2018-09-12T14:10:26.094Z,2.20
2018-09-12T14:12:57.078Z,3.47
2018-09-12T14:15:26.125Z,2.20
2018-09-12T14:17:55.224Z,1.87
2018-09-12T14:20:24.471Z,1.73
2018-09-12T14:22:54.829Z,2.00
2018-09-12T14:25:25.454Z,2.00
2018-09-12T14:27:55.037Z,1.80
2018-09-12T14:30:25.593Z,2.50
2018-09-12T14:32:54.499Z,1.80
2018-09-12T14:35:24.724Z,1.63
2018-09-12T14:37:54.897Z,1.73
2018-09-12T14:40:25.728Z,1.97
2018-09-12T14:42:56.242Z,2.00
2018-09-12T14:45:25.110Z,2.20
2018-09-12T14:47:54.960Z,2.23
2018-09-12T14:50:24.884Z,1.80
2018-09-12T14:52:55.314Z,2.10
2018-09-12T14:55:23.641Z,2.20
2018-09-12T14:57:53.963Z,2.10
2018-09-12T15:00:27.673Z,1.70
2018-09-12T15:02:57.409Z,2.47
2018-09-12T15:05:26.224Z,2.37
2018-09-12T15:07:56.309Z,1.77
2018-09-12T15:10:25.774Z,2.23
2018-09-12T15:12:56.337Z,2.00
2018-09-12T15:15:25.122Z,1.80
2018-09-12T15:17:55.185Z,2.47
2018-09-12T15:20:25.817Z,2.50
2018-09-12T15:22:55.485Z,2.10
2018-09-12T15:25:25.802Z,2.53
2018-09-12T15:27:56.109Z,2.00
2018-09-12T15:30:26.306Z,2.27
2018-09-12T15:32:56.314Z,2.30
2018-09-12T15:35:25.456Z,2.00
2018-09-12T15:37:54.863Z,2.10
2018-09-12T15:40:25.402Z,2.20
2018-09-12T15:42:54.658Z,2.27
2018-09-12T15:45:26.092Z,2.10
2018-09-12T15:47:56.965Z,2.50
2018-09-12T15:50:27.222Z,2.87
2018-09-12T15:52:56.641Z,2.50
2018-09-12T15:55:25.957Z,2.37
2018-09-12T15:57:56.766Z,2.43
2018-09-12T16:00:26.106Z,3.33
2018-09-12T16:02:56.873Z,2.83
2018-09-12T16:05:27.810Z,2.57
2018-09-12T16:07:57.179Z,2.47
2018-09-12T16:10:25.637Z,3.50
2018-09-12T16:12:55.391Z,3.90
2018-09-12T16:15:25.084Z,3.50
2018-09-12T16:17:55.241Z,4.10
2018-09-12T16:20:24.560Z,3.60
2018-09-12T16:22:53.604Z,4.20
2018-09-12T16:25:25.332Z,4.33
2018-09-12T16:27:54.860Z,3.63
2018-09-12T16:30:24.657Z,3.60
2018-09-12T16:32:55.005Z,4.30
2018-09-12T16:35:24.101Z,3.43
2018-09-12T16:37:55.269Z,3.50
2018-09-12T16:40:25.461Z,4.40
2018-09-12T16:42:55.413Z,3.57
2018-09-12T16:45:25.960Z,3.60
2018-09-12T16:47:55.437Z,3.60
2018-09-12T16:50:24.764Z,3.47
2018-09-12T16:52:54.861Z,3.80
2018-09-12T16:55:25.525Z,3.67
2018-09-12T16:57:54.852Z,3.07
2018-09-12T17:00:25.114Z,3.53
2018-09-12T17:02:55.878Z,4.30
2018-09-12T17:05:26.714Z,3.50
2018-09-12T17:07:55.761Z,3.83
2018-09-12T17:10:25.709Z,3.80
2018-09-12T17:12:56.300Z,4.20
2018-09-12T17:15:25.525Z,4.13
2018-09-12T17:17:54.876Z,3.73
2018-09-12T17:20:25.062Z,4.10
2018-09-12T17:22:54.921Z,4.20
2018-09-12T17:25:25.117Z,4.07
2018-09-12T17:27:57.024Z,4.33
2018-09-12T17:30:27.261Z,3.83
2018-09-12T17:32:56.641Z,4.70
2018-09-12T17:35:26.050Z,4.20
2018-09-12T17:37:57.051Z,5.23
2018-09-12T17:40:26.518Z,4.10
2018-09-12T17:42:55.807Z,3.63
2018-09-12T17:45:26.073Z,3.70
2018-09-12T17:47:56.837Z,3.97
2018-09-12T17:50:25.880Z,3.63
2018-09-12T17:52:55.330Z,4.20
2018-09-12T17:55:25.442Z,3.73
2018-09-12T17:57:55.193Z,4.27
2018-09-12T18:00:24.789Z,5.00
2018-09-12T18:02:54.552Z,3.90
2018-09-12T18:05:24.847Z,3.73
2018-09-12T18:07:55.787Z,4.00
2018-09-12T18:10:25.715Z,4.10
2018-09-12T18:12:56.401Z,3.50
2018-09-12T18:15:25.669Z,3.50
2018-09-12T18:17:55.296Z,3.37
2018-09-12T18:20:24.702Z,3.77
2018-09-12T18:22:56.062Z,3.57
2018-09-12T18:25:26.025Z,3.80
2018-09-12T18:27:56.922Z,4.10
2018-09-12T18:30:26.206Z,4.13
2018-09-12T18:32:56.881Z,4.63
2018-09-12T18:35:27.098Z,3.80
2018-09-12T18:37:56.949Z,3.90
2018-09-12T18:40:26.430Z,3.67
2018-09-12T18:42:55.961Z,3.77
2018-09-12T18:45:26.862Z,3.87
2018-09-12T18:47:56.127Z,3.73
2018-09-12T18:50:25.722Z,3.90
2018-09-12T18:52:56.161Z,3.77
2018-09-12T18:55:26.074Z,3.40
2018-09-12T18:57:54.722Z,4.47
2018-09-12T19:00:24.985Z,3.50
2018-09-12T19:02:55.506Z,3.70
2018-09-12T19:05:25.640Z,4.40
2018-09-12T19:07:55.183Z,3.50
2018-09-12T19:10:25.549Z,5.50
2018-09-12T19:12:55.828Z,3.97
2018-09-12T19:15:25.735Z,3.70
2018-09-12T19:17:55.981Z,3.90
2018-09-12T19:20:25.297Z,3.43
2018-09-12T19:22:55.389Z,3.70
2018-09-12T19:25:26.541Z,3.53
2018-09-12T19:27:56.334Z,3.80
2018-09-12T19:30:25.161Z,3.50
2018-09-12T19:32:54.937Z,2.60
2018-09-12T19:35:25.221Z,2.57
2018-09-12T19:37:56.430Z,2.80
2018-09-12T19:40:27.132Z,2.57
2018-09-12T19:42:56.220Z,2.67
2018-09-12T19:45:25.777Z,2.30
2018-09-12T19:47:55.008Z,2.23
2018-09-12T19:50:25.141Z,1.90
2018-09-12T19:52:54.200Z,2.00
2018-09-12T19:55:23.800Z,1.60
2018-09-12T19:57:52.862Z,1.90
2018-09-12T20:00:23.692Z,1.50
2018-09-12T20:02:53.852Z,1.83
2018-09-12T20:05:23.365Z,1.50
2018-09-12T20:07:52.989Z,1.27
2018-09-12T20:10:22.552Z,1.20
2018-09-12T20:12:53.666Z,0.83
2018-09-12T20:15:23.233Z,1.23
2018-09-12T20:17:52.878Z,1.03
2018-09-12T20:20:21.305Z,1.20
2018-09-12T20:22:51.199Z,1.07
2018-09-12T20:25:19.589Z,1.03
2018-09-12T20:27:48.116Z,0.90
2018-09-12T20:30:18.446Z,0.90
2018-09-12T20:32:47.098Z,0.90
2018-09-12T20:35:15.634Z,1.00
2018-09-12T20:37:43.969Z,1.10
2018-09-12T20:40:12.312Z,0.87
2018-09-12T20:42:41.291Z,1.17
2018-09-12T20:45:10.274Z,1.00
2018-09-12T20:47:38.766Z,0.90
2018-09-12T20:50:07.209Z,1.30
2018-09-12T20:52:36.593Z,1.30
2018-09-12T20:55:05.140Z,0.83
2018-09-12T20:57:33.545Z,1.10
2018-09-12T21:00:01.873Z,0.93
2018-09-12T21:02:30.327Z,1.00
2018-09-12T21:04:58.687Z,1.10
2018-09-12T21:07:27.073Z,1.10
2018-09-12T21:09:55.527Z,1.00
2018-09-12T21:12:25.161Z,1.10
2018-09-12T21:14:54.936Z,1.10
2018-09-12T21:17:25.432Z,0.90
2018-09-12T21:19:56.929Z,1.10
2018-09-12T21:22:27.873Z,1.07
2018-09-12T21:24:57.137Z,1.10
2018-09-12T21:27:26.576Z,1.20
2018-09-12T21:29:56.718Z,0.87
2018-09-12T21:32:27.298Z,1.93
2018-09-12T21:34:56.278Z,1.10
2018-09-12T21:37:25.533Z,2.37
2018-09-12T21:39:56.265Z,1.60
2018-09-12T21:42:25.153Z,1.50
2018-09-12T21:44:54.897Z,1.33
2018-09-12T21:47:25.378Z,1.07
2018-09-12T21:49:55.423Z,1.00
2018-09-12T21:52:25.857Z,2.00
2018-09-12T21:54:54.826Z,1.60
2018-09-12T21:57:26.001Z,1.20
2018-09-12T21:59:56.369Z,1.70
2018-09-12T22:02:26.746Z,1.60
2018-09-12T22:04:57.223Z,1.30
2018-09-12T22:07:26.697Z,1.00
2018-09-12T22:09:55.776Z,1.10
2018-09-12T22:12:28.725Z,1.00
2018-09-12T22:14:57.320Z,1.20
2018-09-12T22:17:25.739Z,1.60
2018-09-12T22:19:56.092Z,1.47
2018-09-12T22:22:25.533Z,1.80
2018-09-12T22:24:56.252Z,1.70
2018-09-12T22:27:25.249Z,1.30
2018-09-12T22:29:53.617Z,1.40
2018-09-12T22:32:24.936Z,1.50
2018-09-12T22:34:55.313Z,1.20
2018-09-12T22:37:25.508Z,1.43
2018-09-12T22:39:55.622Z,1.30
2018-09-12T22:42:26.445Z,1.40
2018-09-12T22:44:55.830Z,1.87
2018-09-12T22:47:25.981Z,1.37
2018-09-12T22:49:55.053Z,1.20
2018-09-12T22:52:26.941Z,2.17
2018-09-12T22:54:56.176Z,1.37
2018-09-12T22:57:26.869Z,1.57
2018-09-12T22:59:56.256Z,1.60
2018-09-12T23:02:25.607Z,1.50
2018-09-12T23:04:56.461Z,1.50
2018-09-12T23:07:26.347Z,1.40
2018-09-12T23:09:55.572Z,1.90
2018-09-12T23:12:25.961Z,1.23
2018-09-12T23:14:56.222Z,1.33
2018-09-12T23:17:27.036Z,1.20
2018-09-12T23:19:57.292Z,1.50
2018-09-12T23:22:25.935Z,1.80
2018-09-12T23:24:55.197Z,1.63
2018-09-12T23:27:25.992Z,1.30
2018-09-12T23:29:55.033Z,1.00
2018-09-12T23:32:25.938Z,1.13
2018-09-12T23:34:55.385Z,1.10
2018-09-12T23:37:25.406Z,1.50
2018-09-12T23:39:56.302Z,1.40
2018-09-12T23:42:25.293Z,1.10
2018-09-12T23:44:55.640Z,1.10
2018-09-12T23:47:25.081Z,1.50
2018-09-12T23:49:55.301Z,1.07
2018-09-12T23:52:24.901Z,1.17
2018-09-12T23:54:54.865Z,1.30
2018-09-12T23:57:24.297Z,1.10
2018-09-12T23:59:54.084Z,1.57
